Time;durP1;ratioP1;P1;durP2;ratioP2;P2;SDS_P1;SDS_P2;PMS_P1;PMS_P2;Temp;Humidity;BMP_temperature;BMP_pressure;BME280_temperature;BME280_humidity;BME280_pressure;Samples;Min_cycle;Max_cycle;Signal;HPM_P1;HPM_P2
2023/08/11 00:00:21;;;;;;;0.93;0.60;;;;;;;27.37;43.16;101961.59;4922413;28;97471;-79
2023/08/11 00:02:50;;;;;;;0.90;0.60;;;;;;;27.36;43.31;101959.88;4920635;28;96796;-80
2023/08/11 00:05:18;;;;;;;0.70;0.60;;;;;;;27.36;43.24;101960.72;4920212;28;96685;-80
2023/08/11 00:07:51;;;;;;;0.88;0.60;;;;;;;27.37;43.15;101967.09;4912157;28;97151;-79
2023/08/11 00:10:18;;;;;;;0.70;0.60;;;;;;;27.37;43.05;101967.09;4912658;28;96800;-79
2023/08/11 00:12:45;;;;;;;1.27;0.75;;;;;;;27.37;43.17;101959.69;4908863;28;96726;-80
2023/08/11 00:15:12;;;;;;;0.88;0.65;;;;;;;27.37;43.19;101964.34;4923070;28;96770;-80
2023/08/11 00:17:41;;;;;;;0.70;0.50;;;;;;;27.38;43.28;101971.56;4921469;28;96927;-80
2023/08/11 00:20:08;;;;;;;0.50;0.50;;;;;;;27.36;43.21;101959.88;4923909;28;98027;-80
2023/08/11 00:22:37;;;;;;;0.93;0.65;;;;;;;27.36;43.19;101949.69;4904121;28;96682;-80
2023/08/11 00:25:04;;;;;;;0.85;0.70;;;;;;;27.36;43.08;101952.47;4923455;28;96850;-79
2023/08/11 00:27:31;;;;;;;0.90;0.60;;;;;;;27.36;43.26;101960.72;4921648;28;96915;-80
2023/08/11 00:29:58;;;;;;;1.95;0.60;;;;;;;27.36;43.21;101952.47;4923704;28;96564;-80
2023/08/11 00:32:25;;;;;;;0.93;0.60;;;;;;;27.36;43.13;101957.97;4923106;28;96722;-79
2023/08/11 00:34:51;;;;;;;0.50;0.40;;;;;;;27.36;43.05;101954.34;4923917;28;97386;-79
2023/08/11 00:37:18;;;;;;;0.60;0.50;;;;;;;27.37;43.09;101956.06;4919840;28;98665;-79
2023/08/11 00:39:45;;;;;;;0.90;0.70;;;;;;;27.37;43.46;101959.69;4904594;28;98473;-79
2023/08/11 00:42:12;;;;;;;0.80;0.50;;;;;;;27.37;43.36;101956.06;4904335;28;96925;-80
2023/08/11 00:44:39;;;;;;;0.80;0.70;;;;;;;27.37;43.38;101958.84;4921585;28;96850;-80
2023/08/11 00:47:06;;;;;;;0.63;0.50;;;;;;;27.36;42.85;101951.59;4916386;28;99603;-80
2023/08/11 00:49:33;;;;;;;0.70;0.70;;;;;;;27.36;43.31;101952.47;4917532;28;96874;-80
2023/08/11 00:52:00;;;;;;;0.90;0.80;;;;;;;27.36;43.31;101951.59;4916376;28;96752;-80
2023/08/11 00:54:27;;;;;;;0.77;0.70;;;;;;;27.36;43.03;101948.84;4921658;28;96721;-80
2023/08/11 00:56:54;;;;;;;0.80;0.70;;;;;;;27.36;43.32;101951.59;4922147;28;99302;-80
2023/08/11 00:59:21;;;;;;;1.25;0.73;;;;;;;27.36;43.36;101948.84;4921169;28;96773;-80
2023/08/11 01:01:48;;;;;;;1.48;0.70;;;;;;;27.35;43.37;101944.38;4914711;28;96976;-80
2023/08/11 01:04:14;;;;;;;1.08;0.80;;;;;;;27.35;43.20;101948.00;4923230;28;96528;-80
2023/08/11 01:06:46;;;;;;;0.88;0.63;;;;;;;27.35;43.50;101942.47;4922514;28;98968;-80
2023/08/11 01:09:24;;;;;;;0.70;0.60;;;;;;;27.36;43.21;101924.00;4916438;28;96835;-80
2023/08/11 01:12:05;;;;;;;0.90;0.70;;;;;;;27.35;43.37;101931.44;4897798;28;96906;-80
2023/08/11 01:14:53;;;;;;;0.95;0.60;;;;;;;27.36;43.32;101926.78;4915472;28;96934;-80
2023/08/11 01:17:21;;;;;;;0.80;0.60;;;;;;;27.34;43.45;101920.59;4916272;28;99283;-80
2023/08/11 01:19:48;;;;;;;1.10;0.70;;;;;;;27.33;43.38;101922.50;4921793;28;97398;-80
2023/08/11 01:22:18;;;;;;;0.88;0.70;;;;;;;27.34;43.31;101926.97;4906574;28;96817;-79
2023/08/11 01:24:45;;;;;;;0.75;0.60;;;;;;;27.34;43.55;101917.84;4923561;28;96864;-80
2023/08/11 01:27:12;;;;;;;0.85;0.77;;;;;;;27.34;43.39;101912.31;4900882;28;98032;-80
2023/08/11 01:29:40;;;;;;;0.70;0.60;;;;;;;27.33;43.61;101905.09;4911621;28;98450;-80
2023/08/11 01:32:08;;;;;;;0.95;0.63;;;;;;;27.34;43.33;101901.28;4918851;28;96762;-79
2023/08/11 01:34:35;;;;;;;1.40;0.88;;;;;;;27.33;43.29;101905.94;4923904;28;96908;-80
2023/08/11 01:37:03;;;;;;;0.95;0.60;;;;;;;27.34;43.49;101901.28;4905375;28;99744;-80
2023/08/11 01:39:31;;;;;;;0.60;0.60;;;;;;;27.33;43.38;101900.44;4919587;28;99203;-80
2023/08/11 01:41:58;;;;;;;0.68;0.68;;;;;;;27.33;43.24;101897.66;4914574;28;96550;-80
2023/08/11 01:44:25;;;;;;;0.98;0.90;;;;;;;27.33;43.24;101897.66;4899655;28;97127;-80
2023/08/11 01:46:54;;;;;;;0.70;0.55;;;;;;;27.34;43.40;101890.25;4917729;28;96613;-80
2023/08/11 01:49:24;;;;;;;1.00;0.73;;;;;;;27.33;43.32;101894.91;4895515;28;99044;-80
2023/08/11 01:51:51;;;;;;;1.00;0.77;;;;;;;27.33;43.21;101894.91;4921041;28;96824;-80
2023/08/11 01:54:19;;;;;;;0.70;0.63;;;;;;;27.33;43.27;101896.81;4917427;28;97022;-80
2023/08/11 01:56:46;;;;;;;0.80;0.70;;;;;;;27.33;43.47;101894.91;4907866;28;99352;-80
2023/08/11 01:59:15;;;;;;;0.98;0.80;;;;;;;27.33;43.33;101899.56;4917257;28;100043;-80
2023/08/11 02:01:42;;;;;;;0.98;0.88;;;;;;;27.33;43.30;101896.81;4905567;28;96554;-79
2023/08/11 02:04:09;;;;;;;1.08;0.68;;;;;;;27.33;43.32;101900.44;4918259;28;96707;-80
2023/08/11 02:06:39;;;;;;;0.90;0.63;;;;;;;27.34;43.28;101902.13;4918056;28;100703;-80
2023/08/11 02:09:08;;;;;;;1.00;0.70;;;;;;;27.34;43.29;101898.53;4917781;28;99494;-80
2023/08/11 02:11:36;;;;;;;0.80;0.80;;;;;;;27.33;43.44;101902.34;4920188;28;96787;-80
2023/08/11 02:14:04;;;;;;;0.85;0.75;;;;;;;27.33;43.32;101905.09;4900084;28;96927;-80
2023/08/11 02:16:31;;;;;;;0.70;0.70;;;;;;;27.32;43.45;101903.38;4915474;28;97734;-79
2023/08/11 02:18:59;;;;;;;0.98;0.73;;;;;;;27.32;43.23;101901.47;4914236;28;99154;-79
2023/08/11 02:21:27;;;;;;;0.70;0.63;;;;;;;27.33;43.54;101899.56;4920085;28;96693;-80
2023/08/11 02:23:53;;;;;;;1.08;0.77;;;;;;;27.32;42.95;101889.59;4921703;28;97234;-80
2023/08/11 02:26:22;;;;;;;0.82;0.80;;;;;;;27.31;43.40;101896.16;4920023;28;99504;-80
2023/08/11 02:28:49;;;;;;;0.80;0.70;;;;;;;27.30;43.74;101895.31;4919987;28;96822;-80
2023/08/11 02:31:17;;;;;;;0.90;0.60;;;;;;;27.31;43.46;101885.13;4909214;28;97162;-79
2023/08/11 02:33:44;;;;;;;1.42;0.90;;;;;;;27.32;43.34;101886.84;4920067;28;96947;-80
2023/08/11 02:36:10;;;;;;;0.70;0.60;;;;;;;27.31;43.36;101876.84;4903212;28;100089;-79
2023/08/11 02:38:37;;;;;;;1.00;0.80;;;;;;;27.31;43.11;101882.38;4900732;28;98477;-79
2023/08/11 02:41:03;;;;;;;1.15;0.77;;;;;;;27.30;43.13;101873.22;4918778;28;96679;-80
2023/08/11 02:43:30;;;;;;;1.00;0.70;;;;;;;27.30;43.17;101872.38;4919582;28;97349;-80
2023/08/11 02:45:56;;;;;;;1.00;0.80;;;;;;;27.29;43.45;101877.03;4919305;28;96938;-80
2023/08/11 02:48:23;;;;;;;1.17;0.80;;;;;;;27.30;43.11;101869.63;4911388;28;98549;-80
2023/08/11 02:50:50;;;;;;;0.70;0.70;;;;;;;27.29;43.35;101874.28;4914646;28;96721;-80
2023/08/11 02:53:16;;;;;;;0.60;0.55;;;;;;;27.29;43.45;101877.03;4917022;28;97164;-80
2023/08/11 02:55:43;;;;;;;0.82;0.60;;;;;;;27.29;43.38;101882.56;4902207;28;97931;-80
2023/08/11 02:58:10;;;;;;;1.25;0.70;;;;;;;27.29;43.31;101884.47;4919062;28;98393;-80
2023/08/11 03:00:37;;;;;;;0.98;0.70;;;;;;;27.28;43.55;101883.59;4919331;28;96875;-80
2023/08/11 03:03:03;;;;;;;0.90;0.70;;;;;;;27.28;43.38;101878.09;4910373;28;96504;-80
2023/08/11 03:05:30;;;;;;;1.10;0.90;;;;;;;27.27;43.39;101881.03;4917980;28;96894;-80
2023/08/11 03:07:57;;;;;;;0.75;0.75;;;;;;;27.27;43.33;101887.41;4919599;28;97195;-80
2023/08/11 03:10:24;;;;;;;1.10;1.00;;;;;;;27.28;43.24;101888.28;4918312;28;96864;-79
2023/08/11 03:12:50;;;;;;;1.35;0.80;;;;;;;27.28;43.46;101891.88;4918934;28;96893;-80
2023/08/11 03:15:17;;;;;;;0.77;0.57;;;;;;;27.28;43.23;101891.03;4918484;28;100750;-80
2023/08/11 03:17:44;;;;;;;1.00;0.70;;;;;;;27.28;43.38;101888.28;4918636;28;98193;-80
2023/08/11 03:20:12;;;;;;;1.00;0.80;;;;;;;27.27;43.26;101892.94;4918489;28;97284;-80
2023/08/11 03:22:42;;;;;;;0.90;0.80;;;;;;;27.27;43.20;101892.06;4920300;28;96714;-80
2023/08/11 03:25:11;;;;;;;1.08;0.90;;;;;;;27.27;43.42;101889.31;4921980;28;97667;-79
2023/08/11 03:27:40;;;;;;;0.90;0.80;;;;;;;27.26;43.44;101877.44;4921564;28;98660;-80
2023/08/11 03:30:10;;;;;;;1.00;0.73;;;;;;;27.25;43.30;101875.72;4923016;28;96478;-80
2023/08/11 03:32:39;;;;;;;0.90;0.77;;;;;;;27.25;43.56;101872.97;4921495;28;96691;-80
2023/08/11 03:35:07;;;;;;;0.90;0.73;;;;;;;27.25;43.46;101872.09;4922155;28;96915;-80
2023/08/11 03:37:36;;;;;;;0.95;0.70;;;;;;;27.25;43.43;101872.97;4918889;28;98170;-80
2023/08/11 03:40:09;;;;;;;2.20;0.90;;;;;;;27.24;43.26;101865.72;4919289;28;96780;-80
2023/08/11 03:42:35;;;;;;;0.88;0.70;;;;;;;27.23;43.35;101872.31;4922062;28;97296;-80
2023/08/11 03:45:02;;;;;;;0.93;0.77;;;;;;;27.25;43.43;101872.97;4918345;28;100276;-80
2023/08/11 03:47:29;;;;;;;1.23;0.90;;;;;;;27.24;43.38;101868.50;4921971;28;96722;-80
2023/08/11 03:49:56;;;;;;;0.95;0.70;;;;;;;27.24;43.38;101876.78;4906861;28;96812;-80
2023/08/11 03:52:24;;;;;;;1.13;0.90;;;;;;;27.23;43.27;101880.56;4924308;28;97581;-80
2023/08/11 03:54:51;;;;;;;1.10;0.82;;;;;;;27.23;43.37;101875.91;4918595;28;99665;-80
2023/08/11 03:57:17;;;;;;;0.80;0.70;;;;;;;27.23;43.57;101866.78;4914927;28;99517;-80
2023/08/11 03:59:44;;;;;;;1.05;0.95;;;;;;;27.23;43.40;101866.78;4922929;28;96728;-80
2023/08/11 04:02:11;;;;;;;0.90;0.80;;;;;;;27.22;43.31;101860.41;4922920;28;96960;-80
2023/08/11 04:04:38;;;;;;;1.85;1.08;;;;;;;27.23;43.40;101861.28;4918502;28;98983;-80
2023/08/11 04:07:05;;;;;;;1.00;0.70;;;;;;;27.23;43.46;101866.78;4915904;28;98688;-80
2023/08/11 04:09:34;;;;;;;0.90;0.73;;;;;;;27.22;43.46;101860.41;4921142;28;98717;-80
2023/08/11 04:12:00;;;;;;;0.95;0.70;;;;;;;27.22;43.38;101862.31;4919519;28;96949;-80
2023/08/11 04:14:27;;;;;;;0.93;0.75;;;;;;;27.21;43.34;101858.72;4921417;28;97651;-80
2023/08/11 04:16:54;;;;;;;1.42;0.80;;;;;;;27.21;43.45;101869.72;4923168;28;99510;-80
2023/08/11 04:19:20;;;;;;;1.40;0.80;;;;;;;27.21;43.34;101871.63;4922355;28;96773;-80
2023/08/11 04:21:47;;;;;;;0.93;0.80;;;;;;;27.21;43.40;101868.88;4922428;28;96774;-80
2023/08/11 04:24:15;;;;;;;1.60;0.88;;;;;;;27.21;43.29;101864.22;4922211;28;100732;-80
2023/08/11 04:26:42;;;;;;;1.00;0.85;;;;;;;27.20;43.39;101868.03;4916523;28;98593;-80
2023/08/11 04:29:09;;;;;;;0.80;0.77;;;;;;;27.21;43.42;101868.88;4898612;28;96916;-80
2023/08/11 04:31:36;;;;;;;1.52;0.80;;;;;;;27.20;43.50;101873.53;4908328;28;96967;-80
2023/08/11 04:34:05;;;;;;;0.98;0.88;;;;;;;27.21;43.51;101877.16;4908964;28;100811;-80
2023/08/11 04:36:33;;;;;;;1.13;1.02;;;;;;;27.20;43.41;101879.06;4911281;28;97452;-80
2023/08/11 04:39:00;;;;;;;1.20;0.75;;;;;;;27.20;43.36;101868.03;4910340;28;96865;-80
2023/08/11 04:41:26;;;;;;;1.50;0.90;;;;;;;27.19;43.40;101866.31;4891424;28;97581;-80
2023/08/11 04:43:53;;;;;;;1.35;0.88;;;;;;;27.19;43.18;101869.06;4912761;28;99657;-80
2023/08/11 04:46:20;;;;;;;1.27;0.88;;;;;;;27.20;43.67;101879.06;4910865;28;99415;-80
2023/08/11 04:48:46;;;;;;;1.20;0.90;;;;;;;27.20;43.36;101879.06;4915048;28;97029;-80
2023/08/11 04:51:13;;;;;;;1.20;0.90;;;;;;;27.20;43.38;101868.03;4914140;28;97279;-80
2023/08/11 04:53:40;;;;;;;1.10;0.90;;;;;;;27.19;43.40;101869.06;4910797;28;99533;-80
2023/08/11 04:56:06;;;;;;;1.40;0.90;;;;;;;27.19;43.32;101863.56;4913013;28;97314;-80
2023/08/11 04:58:33;;;;;;;1.60;0.90;;;;;;;27.19;43.48;101866.31;4913630;28;96784;-80
2023/08/11 05:01:03;;;;;;;0.80;0.80;;;;;;;27.19;43.56;101869.06;4914395;28;96698;-80
2023/08/11 05:03:30;;;;;;;1.17;0.90;;;;;;;27.19;43.44;101866.31;4914673;28;96893;-80
2023/08/11 05:05:57;;;;;;;0.80;0.75;;;;;;;27.19;43.35;101866.31;4913339;28;97252;-80
2023/08/11 05:08:23;;;;;;;1.02;0.80;;;;;;;27.19;43.40;101862.69;4914384;28;97293;-80
2023/08/11 05:10:50;;;;;;;1.10;0.80;;;;;;;27.18;43.45;101858.25;4913578;28;96894;-80
2023/08/11 05:13:16;;;;;;;1.23;0.90;;;;;;;27.19;43.51;101857.19;4913527;28;97624;-79
2023/08/11 05:15:43;;;;;;;0.98;0.80;;;;;;;27.20;43.40;101853.38;4915175;28;97584;-80
2023/08/11 05:18:10;;;;;;;1.05;0.93;;;;;;;27.18;43.40;101853.56;4914543;28;97016;-80
2023/08/11 05:20:36;;;;;;;1.00;0.90;;;;;;;27.19;43.46;101852.53;4913951;28;97129;-80
2023/08/11 05:23:04;;;;;;;0.80;0.77;;;;;;;27.19;43.42;101844.25;4913582;28;98231;-80
2023/08/11 05:25:30;;;;;;;1.40;0.77;;;;;;;27.19;43.48;101849.78;4897552;28;96858;-80
2023/08/11 05:27:57;;;;;;;0.90;0.80;;;;;;;27.19;43.46;101846.16;4915548;28;96611;-80
2023/08/11 05:30:27;;;;;;;1.00;0.82;;;;;;;27.20;43.54;101839.59;4916235;28;99186;-80
2023/08/11 05:32:54;;;;;;;1.27;0.98;;;;;;;27.19;43.45;101841.50;4908012;28;97268;-80
2023/08/11 05:35:21;;;;;;;1.00;0.80;;;;;;;27.19;43.41;101837.88;4914280;28;97155;-80
2023/08/11 05:37:48;;;;;;;1.10;1.00;;;;;;;27.19;43.38;101838.75;4911989;28;96921;-80
2023/08/11 05:40:16;;;;;;;1.17;0.88;;;;;;;27.19;43.51;101843.41;4914307;28;97181;-80
2023/08/11 05:42:42;;;;;;;1.00;0.85;;;;;;;27.19;43.32;101833.22;4913940;28;96965;-80
2023/08/11 05:45:09;;;;;;;1.33;0.85;;;;;;;27.20;43.34;101840.44;4914308;28;96917;-79
2023/08/11 05:47:36;;;;;;;0.90;0.70;;;;;;;27.20;43.39;101845.09;4914510;28;96723;-80
2023/08/11 05:50:03;;;;;;;1.50;1.20;;;;;;;27.19;43.65;101835.97;4919503;28;97477;-79
2023/08/11 05:52:30;;;;;;;1.58;0.70;;;;;;;27.20;43.76;101829.41;4915834;28;96985;-80
2023/08/11 05:54:56;;;;;;;1.20;1.00;;;;;;;27.20;43.45;101834.94;4921864;28;99299;-80
2023/08/11 05:57:23;;;;;;;1.30;1.10;;;;;;;27.21;43.51;101830.28;4923644;28;97216;-80
2023/08/11 05:59:50;;;;;;;1.00;0.90;;;;;;;27.20;43.29;101834.94;4920514;28;96846;-80
2023/08/11 06:02:16;;;;;;;1.23;0.90;;;;;;;27.21;43.44;101833.03;4922291;28;97109;-80
2023/08/11 06:04:44;;;;;;;1.00;0.80;;;;;;;27.21;43.52;101833.88;4921950;28;97427;-80
2023/08/11 06:07:11;;;;;;;0.90;0.80;;;;;;;27.21;43.44;101839.41;4919072;28;97095;-80
2023/08/11 06:09:37;;;;;;;1.05;0.90;;;;;;;27.22;43.39;101838.34;4916058;28;96950;-79
2023/08/11 06:12:05;;;;;;;0.95;0.85;;;;;;;27.22;43.61;101843.00;4908127;28;97096;-80
2023/08/11 06:14:31;;;;;;;1.00;0.80;;;;;;;27.22;43.28;101835.59;4913203;28;97014;-80
2023/08/11 06:16:58;;;;;;;1.33;0.90;;;;;;;27.23;43.50;101839.19;4914589;28;96833;-80
2023/08/11 06:19:25;;;;;;;1.02;0.90;;;;;;;27.22;43.38;101838.34;4900385;28;97412;-80
2023/08/11 06:21:52;;;;;;;1.50;1.10;;;;;;;27.24;43.48;101843.66;4919331;28;97635;-80
2023/08/11 06:24:20;;;;;;;1.00;0.90;;;;;;;27.24;43.43;101835.41;4918196;28;96865;-80
2023/08/11 06:26:48;;;;;;;1.45;0.90;;;;;;;27.24;43.16;101840.91;4916008;28;96890;-80
2023/08/11 06:29:15;;;;;;;1.40;1.10;;;;;;;27.24;43.49;101843.66;4919718;28;96874;-79
2023/08/11 06:31:42;;;;;;;1.25;1.00;;;;;;;27.25;43.42;101844.53;4920098;28;96802;-79
2023/08/11 06:34:09;;;;;;;1.15;1.00;;;;;;;27.25;43.45;101841.78;4914964;28;96830;-79
2023/08/11 06:36:36;;;;;;;1.42;1.00;;;;;;;27.25;43.27;101848.13;4914126;28;97140;-80
2023/08/11 06:39:04;;;;;;;1.45;1.30;;;;;;;27.26;43.22;101840.72;4913416;28;96858;-79
2023/08/11 06:41:30;;;;;;;1.00;0.90;;;;;;;27.25;43.36;101842.63;4912625;28;97506;-80
2023/08/11 06:43:57;;;;;;;1.10;1.00;;;;;;;27.26;43.50;101840.72;4915077;28;97476;-80
2023/08/11 06:46:23;;;;;;;1.48;1.35;;;;;;;27.26;43.26;101849.84;4918244;28;96824;-79
2023/08/11 06:48:50;;;;;;;1.00;0.90;;;;;;;27.27;43.41;101850.69;4917253;28;96883;-80
2023/08/11 06:51:17;;;;;;;1.20;0.93;;;;;;;27.27;43.41;101848.81;4917582;28;97269;-79
2023/08/11 06:53:43;;;;;;;1.52;1.17;;;;;;;27.26;43.18;101846.22;4900278;28;99270;-79
2023/08/11 06:56:10;;;;;;;1.83;0.90;;;;;;;27.26;43.49;101847.09;4916068;28;97346;-79
2023/08/11 06:58:37;;;;;;;0.90;0.90;;;;;;;27.26;43.65;101855.38;4899753;28;96711;-80
2023/08/11 07:01:03;;;;;;;1.58;1.20;;;;;;;27.28;43.36;101852.41;4917283;28;97033;-80
2023/08/11 07:03:33;;;;;;;1.10;1.00;;;;;;;27.28;43.47;101852.41;4915622;28;98525;-80
2023/08/11 07:06:01;;;;;;;3.28;1.30;;;;;;;27.29;43.63;101851.38;4916411;28;96835;-79
2023/08/11 07:08:28;;;;;;;1.00;0.90;;;;;;;27.29;43.43;101852.22;4917094;28;96878;-79
2023/08/11 07:10:55;;;;;;;1.10;1.00;;;;;;;27.30;43.64;101853.06;4916485;28;97554;-80
2023/08/11 07:13:22;;;;;;;1.80;1.20;;;;;;;27.29;43.46;101851.38;4915705;28;97440;-79
2023/08/11 07:15:48;;;;;;;1.25;1.15;;;;;;;27.30;43.39;101858.59;4914331;28;97242;-80
2023/08/11 07:18:15;;;;;;;1.45;1.20;;;;;;;27.30;43.36;101864.97;4914314;28;96552;-80
2023/08/11 07:20:42;;;;;;;1.50;1.15;;;;;;;27.31;43.36;101863.06;4915038;28;96925;-79
2023/08/11 07:23:10;;;;;;;1.42;1.23;;;;;;;27.32;43.80;101873.03;4914079;28;97259;-80
2023/08/11 07:25:36;;;;;;;1.08;0.98;;;;;;;27.32;43.46;101867.53;4914040;28;96952;-80
2023/08/11 07:28:03;;;;;;;1.30;1.20;;;;;;;27.32;43.56;101867.53;4899776;28;96886;-79
2023/08/11 07:30:30;;;;;;;1.27;1.05;;;;;;;27.32;43.29;101865.63;4917208;28;96826;-79
2023/08/11 07:32:57;;;;;;;1.55;1.20;;;;;;;27.33;43.46;101864.56;4916305;28;96852;-79
2023/08/11 07:35:24;;;;;;;1.52;1.08;;;;;;;27.33;43.23;101863.72;4914860;28;96897;-79
2023/08/11 07:37:50;;;;;;;1.45;1.05;;;;;;;27.34;43.58;101866.28;4917836;28;96636;-79
2023/08/11 07:40:18;;;;;;;0.98;0.98;;;;;;;27.34;43.59;101862.66;4915524;28;98686;-79
2023/08/11 07:42:44;;;;;;;0.95;0.90;;;;;;;27.34;43.38;101859.91;4914085;28;96758;-79
2023/08/11 07:45:11;;;;;;;1.20;1.10;;;;;;;27.34;43.74;101866.28;4916326;28;96762;-80
2023/08/11 07:47:38;;;;;;;1.20;1.00;;;;;;;27.35;43.26;101858.84;4910372;28;97071;-80
2023/08/11 07:50:05;;;;;;;1.88;1.30;;;;;;;27.35;43.61;101865.22;4917132;28;96707;-80
2023/08/11 07:52:32;;;;;;;1.20;1.10;;;;;;;27.36;43.43;101872.47;4917089;28;96806;-80
2023/08/11 07:54:58;;;;;;;1.42;1.17;;;;;;;27.36;43.58;101860.56;4900240;28;97441;-79
2023/08/11 07:57:25;;;;;;;1.83;1.30;;;;;;;27.37;43.52;101865.03;4909636;28;96854;-79
2023/08/11 07:59:52;;;;;;;2.50;1.25;;;;;;;27.36;43.56;101869.69;4910783;28;97400;-80
2023/08/11 08:02:18;;;;;;;2.15;1.13;;;;;;;27.37;43.66;101867.78;4917790;28;97384;-80
2023/08/11 08:04:45;;;;;;;1.10;1.00;;;;;;;27.37;43.80;101865.88;4916120;28;96921;-79
2023/08/11 08:07:11;;;;;;;1.45;1.35;;;;;;;27.37;43.62;101867.78;4918116;28;97242;-80
2023/08/11 08:09:38;;;;;;;1.42;1.23;;;;;;;27.38;43.43;101878.63;4919807;28;97160;-79
2023/08/11 08:12:05;;;;;;;2.20;1.02;;;;;;;27.38;43.65;101875.03;4918607;28;96861;-79
2023/08/11 08:14:32;;;;;;;1.15;1.02;;;;;;;27.38;43.56;101870.34;4918350;28;96835;-80
2023/08/11 08:17:01;;;;;;;1.63;1.02;;;;;;;27.39;43.49;101871.22;4919538;28;96979;-79
2023/08/11 08:19:27;;;;;;;1.20;1.10;;;;;;;27.39;43.65;101868.44;4920144;28;98026;-80
2023/08/11 08:21:54;;;;;;;1.27;1.10;;;;;;;27.39;43.56;101868.44;4920999;28;97363;-80
2023/08/11 08:24:20;;;;;;;1.65;1.10;;;;;;;27.41;43.73;101874.63;4918266;28;96816;-80
2023/08/11 08:26:48;;;;;;;1.52;1.10;;;;;;;27.40;43.67;101871.00;4921032;28;96495;-79
2023/08/11 08:29:14;;;;;;;1.10;1.00;;;;;;;27.40;43.63;101879.28;4921305;28;96859;-80
2023/08/11 08:31:41;;;;;;;1.00;0.90;;;;;;;27.42;43.72;101874.44;4921840;28;96891;-80
2023/08/11 08:34:07;;;;;;;1.77;1.42;;;;;;;27.42;43.67;101871.69;4919939;28;96774;-79
2023/08/11 08:36:34;;;;;;;2.33;1.15;;;;;;;27.42;43.47;101870.81;4919452;28;96913;-79
2023/08/11 08:39:01;;;;;;;1.20;1.00;;;;;;;27.42;43.60;101868.91;4914911;28;96551;-80
2023/08/11 08:41:30;;;;;;;1.23;1.13;;;;;;;27.42;43.52;101868.91;4916652;28;97190;-79
2023/08/11 08:44:00;;;;;;;1.02;0.93;;;;;;;27.43;43.64;101867.88;4918288;28;98217;-80
2023/08/11 08:46:30;;;;;;;1.40;1.10;;;;;;;27.44;43.70;101865.97;4902896;28;97973;-80
2023/08/11 08:49:38;;;;;;;1.40;1.00;;;;;;;27.44;43.53;101865.97;4920836;28;96696;-79
2023/08/11 08:52:06;;;;;;;1.20;1.10;;;;;;;27.42;43.72;101870.81;4873100;28;96980;-79
2023/08/11 08:54:33;;;;;;;1.60;1.42;;;;;;;27.44;43.93;101868.72;4907636;28;96859;-80
2023/08/11 08:57:03;;;;;;;1.38;1.20;;;;;;;27.44;43.62;101874.25;4907089;28;96854;-80
2023/08/11 08:59:30;;;;;;;2.10;1.10;;;;;;;27.45;43.62;101859.41;4904053;28;98104;-79
2023/08/11 09:01:58;;;;;;;1.38;1.20;;;;;;;27.45;43.52;101865.78;4918849;28;96835;-79
2023/08/11 09:04:26;;;;;;;1.42;1.20;;;;;;;27.46;43.38;101863.88;4919721;28;96869;-79
2023/08/11 09:06:53;;;;;;;1.08;0.98;;;;;;;27.46;43.52;101859.19;4914964;28;97614;-80
2023/08/11 09:09:20;;;;;;;1.10;1.00;;;;;;;27.46;43.67;101869.38;4920770;28;96788;-79
2023/08/11 09:11:48;;;;;;;1.20;1.10;;;;;;;27.47;43.33;101869.19;4902612;28;96837;-80
2023/08/11 09:14:16;;;;;;;1.30;1.15;;;;;;;27.47;43.91;101865.56;4919028;28;96779;-80
2023/08/11 09:16:43;;;;;;;1.40;1.20;;;;;;;27.48;43.73;101864.53;4933842;28;98644;-79
2023/08/11 09:19:11;;;;;;;1.42;1.10;;;;;;;27.49;43.93;101866.22;4921348;28;97598;-80
2023/08/11 09:21:41;;;;;;;1.40;1.27;;;;;;;27.49;43.63;101869.00;4918283;28;98883;-79
2023/08/11 09:24:10;;;;;;;1.95;0.88;;;;;;;27.49;43.68;101867.09;4921791;28;96798;-79
2023/08/11 09:26:37;;;;;;;2.30;1.25;;;;;;;27.49;43.41;101861.56;4921293;28;96728;-79
2023/08/11 09:29:04;;;;;;;1.25;1.10;;;;;;;27.50;43.65;101868.81;4919762;28;96744;-80
2023/08/11 09:31:30;;;;;;;2.22;1.30;;;;;;;27.51;43.26;101861.41;4909010;28;96766;-80
2023/08/11 09:34:10;;;;;;;1.90;1.17;;;;;;;27.52;43.61;101860.34;4918672;28;96668;-79
2023/08/11 09:36:37;;;;;;;1.40;0.98;;;;;;;27.51;43.63;101858.66;4917727;28;97224;-80
2023/08/11 09:39:07;;;;;;;1.45;1.25;;;;;;;27.53;43.66;101859.31;4913899;28;98104;-79
2023/08/11 09:41:52;;;;;;;1.58;1.27;;;;;;;27.53;43.66;101856.53;4916888;28;96853;-80
2023/08/11 09:44:21;;;;;;;1.52;1.10;;;;;;;27.52;43.56;101854.84;4918339;28;96680;-80
2023/08/11 09:46:48;;;;;;;1.60;1.33;;;;;;;27.52;43.42;101857.59;4924887;28;97451;-80
2023/08/11 09:49:17;;;;;;;1.67;1.30;;;;;;;27.52;43.47;101849.31;4922085;28;97762;-79
2023/08/11 09:51:45;;;;;;;1.15;1.00;;;;;;;27.52;43.62;101855.69;4905609;28;100658;-79
2023/08/11 09:54:14;;;;;;;1.23;1.13;;;;;;;27.52;43.68;101860.34;4921641;28;96617;-80
2023/08/11 09:56:43;;;;;;;1.15;1.05;;;;;;;27.54;43.48;101855.50;4921775;28;96605;-79
2023/08/11 09:59:20;;;;;;;1.10;0.90;;;;;;;27.54;43.57;101853.59;4921566;28;96906;-80
2023/08/11 10:01:48;;;;;;;1.40;1.23;;;;;;;27.54;43.63;101853.59;4922663;28;97516;-80
2023/08/11 10:04:29;;;;;;;1.48;0.95;;;;;;;27.54;43.51;101850.84;4921487;28;96692;-80
2023/08/11 10:06:58;;;;;;;3.15;1.23;;;;;;;27.54;43.55;101853.59;4921678;28;96943;-80
2023/08/11 10:09:27;;;;;;;1.27;1.13;;;;;;;27.56;43.34;101849.78;4920303;28;96681;-80
2023/08/11 10:11:57;;;;;;;1.20;1.10;;;;;;;27.57;43.31;101851.50;4920819;28;98400;-80
2023/08/11 10:14:25;;;;;;;1.70;1.10;;;;;;;27.57;43.57;101851.50;4918580;28;96906;-80
2023/08/11 10:16:53;;;;;;;1.25;1.15;;;;;;;27.58;43.38;101850.44;4921696;28;96826;-80
2023/08/11 10:19:20;;;;;;;1.60;1.40;;;;;;;27.58;43.64;101856.81;4920260;28;97300;-79
2023/08/11 10:21:46;;;;;;;1.88;1.20;;;;;;;27.59;43.92;101849.38;4913185;28;99552;-80
2023/08/11 10:24:13;;;;;;;1.23;1.10;;;;;;;27.60;43.45;101856.63;4918882;28;96898;-80
2023/08/11 10:26:40;;;;;;;1.33;1.20;;;;;;;27.59;43.64;101850.25;4919793;28;96729;-80
2023/08/11 10:29:08;;;;;;;1.40;1.10;;;;;;;27.59;43.51;101855.75;4921623;28;98462;-80
2023/08/11 10:31:34;;;;;;;1.10;1.00;;;;;;;27.59;43.39;101853.00;4920331;28;96714;-80
2023/08/11 10:34:08;;;;;;;1.10;1.00;;;;;;;27.60;43.61;101857.47;4918439;28;96979;-80
2023/08/11 10:36:34;;;;;;;1.48;1.13;;;;;;;27.60;43.73;101849.19;4920449;28;96864;-80
2023/08/11 10:39:04;;;;;;;2.10;1.40;;;;;;;27.62;43.49;101851.78;4914740;28;97734;-80
2023/08/11 10:41:31;;;;;;;1.38;1.20;;;;;;;27.61;43.31;101850.94;4920955;28;97917;-80
2023/08/11 10:43:58;;;;;;;1.40;1.30;;;;;;;27.61;43.24;101842.66;4920287;28;97328;-80
2023/08/11 10:46:30;;;;;;;1.52;1.25;;;;;;;27.62;43.51;101843.50;4897497;28;96819;-79
2023/08/11 10:48:59;;;;;;;0.98;0.88;;;;;;;27.62;43.37;101843.50;4914162;28;99939;-79
2023/08/11 10:51:36;;;;;;;1.42;1.27;;;;;;;27.63;43.53;101845.22;4916685;28;100712;-80
2023/08/11 10:54:06;;;;;;;1.10;1.00;;;;;;;27.62;43.54;101836.09;4921106;28;97327;-80
2023/08/11 10:56:35;;;;;;;1.20;1.10;;;;;;;27.62;43.42;101838.84;4920379;28;97225;-79
2023/08/11 10:59:06;;;;;;;1.30;0.88;;;;;;;27.64;43.58;101833.13;4920592;28;97910;-80
2023/08/11 11:01:35;;;;;;;1.33;1.17;;;;;;;27.64;43.60;101833.13;4915413;28;97375;-79
2023/08/11 11:04:02;;;;;;;1.58;1.20;;;;;;;27.63;43.38;101837.78;4916940;28;96808;-80
2023/08/11 11:06:30;;;;;;;1.30;1.20;;;;;;;27.64;43.59;101833.97;4904317;28;96924;-80
2023/08/11 11:08:56;;;;;;;1.50;1.23;;;;;;;27.64;43.40;101842.25;4914330;28;96797;-79
2023/08/11 11:11:23;;;;;;;1.40;1.20;;;;;;;27.64;43.46;101839.50;4919999;28;96883;-80
2023/08/11 11:13:51;;;;;;;1.20;1.10;;;;;;;27.64;43.47;101838.66;4920851;28;97148;-80
2023/08/11 11:16:19;;;;;;;1.73;1.20;;;;;;;27.66;43.60;101842.06;4911610;28;97810;-80
2023/08/11 11:18:47;;;;;;;1.52;1.20;;;;;;;27.66;43.52;101825.50;4912997;28;96675;-80
2023/08/11 11:21:15;;;;;;;1.10;1.00;;;;;;;27.65;43.27;101835.69;4915880;28;97839;-80
2023/08/11 11:23:49;;;;;;;1.30;1.20;;;;;;;27.66;43.54;101833.78;4918532;28;96795;-80
2023/08/11 11:26:32;;;;;;;;;;;;;;;27.62;43.46;101826.94;4914864;28;96708;-79